Time;durP1;ratioP1;P1;durP2;ratioP2;P2;SDS_P1;SDS_P2;PMS_P1;PMS_P2;Temp;Humidity;BMP_temperature;BMP_pressure;BME280_temperature;BME280_humidity;BME280_pressure;Samples;Min_cycle;Max_cycle;Signal;HPM_P1;HPM_P2
2022/12/07 00:01:29;;;;;;;49.17;20.27;;;2.00;99.90;;;;;;4714203;30;20099;-79
2022/12/07 00:04:05;;;;;;;50.90;19.80;;;2.00;99.90;;;;;;4728860;30;20059;-79
2022/12/07 00:06:34;;;;;;;43.38;18.75;;;2.00;99.90;;;;;;4715639;30;20136;-79
2022/12/07 00:09:01;;;;;;;49.30;22.52;;;2.00;99.90;;;;;;4712193;30;20635;-79
2022/12/07 00:11:28;;;;;;;46.75;20.42;;;2.00;99.90;;;;;;4713323;30;20045;-79
2022/12/07 00:13:58;;;;;;;50.70;20.58;;;2.00;99.90;;;;;;4709155;30;20424;-79
2022/12/07 00:16:29;;;;;;;43.55;18.58;;;2.00;99.90;;;;;;4714951;30;20084;-79
2022/12/07 00:18:57;;;;;;;44.00;18.58;;;1.90;99.90;;;;;;4700397;30;20135;-79
2022/12/07 00:21:27;;;;;;;46.30;20.23;;;1.90;99.90;;;;;;4706243;30;20054;-79
2022/12/07 00:23:55;;;;;;;44.50;19.63;;;1.90;99.90;;;;;;4714155;30;20049;-79
2022/12/07 00:26:24;;;;;;;50.30;19.80;;;1.90;99.90;;;;;;4715544;30;20418;-79
2022/12/07 00:28:56;;;;;;;47.78;19.48;;;1.80;99.90;;;;;;4701260;30;20095;-79
2022/12/07 00:31:26;;;;;;;49.85;20.40;;;1.80;99.90;;;;;;4696433;30;20382;-79
2022/12/07 00:33:53;;;;;;;66.72;26.35;;;1.80;99.90;;;;;;4702756;30;20048;-79
2022/12/07 00:36:22;;;;;;;51.45;23.15;;;1.80;99.90;;;;;;4717234;30;20056;-79
2022/12/07 00:38:54;;;;;;;52.63;20.30;;;1.80;99.90;;;;;;4715152;30;20110;-79
2022/12/07 00:41:23;;;;;;;49.35;21.05;;;1.80;99.90;;;;;;4712857;30;20080;-79
2022/12/07 00:43:51;;;;;;;47.50;20.80;;;1.70;99.90;;;;;;4696628;30;20045;-78
2022/12/07 00:46:20;;;;;;;47.45;20.98;;;1.70;99.90;;;;;;4724795;30;20053;-79
2022/12/07 00:48:48;;;;;;;42.00;18.10;;;1.70;99.90;;;;;;4717556;30;20048;-79
2022/12/07 00:51:17;;;;;;;44.85;19.73;;;1.70;99.90;;;;;;4726835;30;20154;-79
2022/12/07 00:53:45;;;;;;;46.80;19.50;;;1.70;99.90;;;;;;4699200;30;20049;-79
2022/12/07 00:56:18;;;;;;;51.58;19.63;;;1.60;99.90;;;;;;4701056;30;20537;-79
2022/12/07 00:58:54;;;;;;;46.78;19.73;;;1.60;99.90;;;;;;4715274;30;20119;-79
2022/12/07 01:01:21;;;;;;;51.33;19.92;;;1.60;99.90;;;;;;4710921;30;20057;-79
2022/12/07 01:03:49;;;;;;;42.38;17.67;;;1.60;99.90;;;;;;4713415;30;20048;-79
2022/12/07 01:06:20;;;;;;;38.25;17.48;;;1.60;99.90;;;;;;4715096;30;20463;-79
2022/12/07 01:08:48;;;;;;;42.58;16.13;;;1.70;99.90;;;;;;4698786;30;20464;-79
2022/12/07 01:11:19;;;;;;;46.33;17.67;;;1.60;99.90;;;;;;4712457;30;20056;-79
2022/12/07 01:13:46;;;;;;;38.83;16.77;;;1.70;99.90;;;;;;4728644;30;20052;-79
2022/12/07 01:16:15;;;;;;;36.50;15.93;;;1.70;99.90;;;;;;4697342;30;20059;-79
2022/12/07 01:18:47;;;;;;;41.20;16.48;;;1.70;99.90;;;;;;4705228;30;20046;-79
2022/12/07 01:21:24;;;;;;;39.45;16.23;;;1.70;99.90;;;;;;4716968;30;20056;-79
2022/12/07 01:23:52;;;;;;;38.50;15.63;;;1.70;99.90;;;;;;4711727;30;20151;-79
2022/12/07 01:26:22;;;;;;;50.78;17.67;;;1.70;99.90;;;;;;4714115;30;20048;-79
2022/12/07 01:28:49;;;;;;;42.55;17.52;;;1.60;99.90;;;;;;4714241;30;20139;-79
2022/12/07 01:31:19;;;;;;;44.38;17.27;;;1.70;99.90;;;;;;4710369;30;20452;-79
2022/12/07 01:33:52;;;;;;;45.42;18.13;;;1.70;99.90;;;;;;4716677;30;20175;-79
2022/12/07 01:36:21;;;;;;;;;;;1.70;99.90;;;;;;4733601;30;20067;-79
2022/12/07 01:38:52;;;;;;;35.67;15.43;;;1.70;99.90;;;;;;4727072;30;19927;-79
2022/12/07 01:41:21;;;;;;;44.00;16.40;;;1.60;99.90;;;;;;4716720;30;20146;-79
2022/12/07 01:44:25;;;;;;;45.60;17.27;;;1.60;99.90;;;;;;4731273;30;20425;-79
2022/12/07 01:46:58;;;;;;;43.00;16.52;;;1.60;99.90;;;;;;4731226;30;20040;-79
2022/12/07 01:49:33;;;;;;;40.85;16.92;;;1.60;99.90;;;;;;4722293;30;20059;-79
2022/12/07 01:52:29;;;;;;;44.22;17.83;;;1.60;99.90;;;;;;4734375;30;20058;-79
2022/12/07 01:55:04;;;;;;;41.78;16.80;;;1.60;99.90;;;;;;4733787;30;20045;-79
2022/12/07 01:57:34;;;;;;;39.78;15.70;;;1.60;99.90;;;;;;4736535;30;20056;-79
2022/12/07 02:00:05;;;;;;;44.83;17.63;;;1.60;99.90;;;;;;4734367;30;20052;-79
2022/12/07 02:02:51;;;;;;;41.05;16.10;;;1.50;99.90;;;;;;4733734;30;20131;-79
2022/12/07 02:05:19;;;;;;;39.22;15.15;;;1.50;99.90;;;;;;4735977;30;20062;-79
2022/12/07 02:07:48;;;;;;;43.55;16.35;;;1.50;99.90;;;;;;4733499;30;20938;-79
2022/12/07 02:10:19;;;;;;;43.35;16.80;;;1.50;99.90;;;;;;4731672;30;20177;-79
2022/12/07 02:12:53;;;;;;;46.00;16.58;;;1.50;99.90;;;;;;4724267;30;20555;-79
2022/12/07 02:15:24;;;;;;;42.25;16.50;;;1.60;99.90;;;;;;4736539;30;20147;-79
2022/12/07 02:18:10;;;;;;;41.85;17.33;;;1.50;99.90;;;;;;4735245;30;20102;-79
2022/12/07 02:20:59;;;;;;;41.53;16.15;;;1.60;99.90;;;;;;4724611;30;20045;-79
2022/12/07 02:23:48;;;;;;;44.28;17.42;;;1.50;99.90;;;;;;4734215;30;20048;-79
2022/12/07 02:26:18;;;;;;;53.60;19.98;;;1.50;99.90;;;;;;4731212;30;20053;-79
2022/12/07 02:29:07;;;;;;;45.75;16.90;;;1.50;99.90;;;;;;4719978;30;20071;-79
2022/12/07 02:31:37;;;;;;;51.58;18.90;;;1.60;99.90;;;;;;4733450;30;20105;-79
2022/12/07 02:34:30;;;;;;;50.58;18.02;;;1.50;99.90;;;;;;4750587;30;20063;-80
2022/12/07 02:37:01;;;;;;;;;;;1.60;99.90;;;;;;4732538;30;20064;-80
2022/12/07 02:39:42;;;;;;;40.10;15.68;;;1.60;99.90;;;;;;4750655;30;19926;-79
2022/12/07 02:42:27;;;;;;;43.97;15.98;;;1.60;99.90;;;;;;4717024;30;20150;-79
2022/12/07 02:44:54;;;;;;;53.22;18.48;;;1.70;99.90;;;;;;4745360;30;20170;-79
2022/12/07 02:47:23;;;;;;;59.45;20.55;;;1.70;99.90;;;;;;4730925;30;20332;-79
2022/12/07 02:49:52;;;;;;;55.15;18.60;;;1.70;99.90;;;;;;4734788;30;20059;-79
2022/12/07 02:52:19;;;;;;;54.70;18.48;;;1.70;99.90;;;;;;4718747;30;20052;-79
2022/12/07 02:54:46;;;;;;;43.90;17.23;;;1.70;99.90;;;;;;4730950;30;20053;-79
2022/12/07 02:57:31;;;;;;;42.45;16.63;;;1.70;99.90;;;;;;4747021;30;20468;-79
2022/12/07 03:00:11;;;;;;;45.53;18.27;;;1.80;99.90;;;;;;4744504;30;20131;-79
2022/12/07 03:02:56;;;;;;;38.15;14.90;;;1.80;99.90;;;;;;4744989;30;20056;-79
2022/12/07 03:05:32;;;;;;;38.72;14.77;;;1.80;99.90;;;;;;4735348;30;20069;-79
2022/12/07 03:08:19;;;;;;;31.98;13.77;;;1.80;99.90;;;;;;4719614;30;20059;-80
2022/12/07 03:10:55;;;;;;;40.35;16.42;;;1.80;99.90;;;;;;4732328;30;20044;-80
2022/12/07 03:13:34;;;;;;;33.20;13.95;;;1.80;99.90;;;;;;4735318;30;20040;-80
2022/12/07 03:16:27;;;;;;;35.85;13.85;;;1.80;99.90;;;;;;4732649;30;20052;-79
2022/12/07 03:19:07;;;;;;;35.42;13.52;;;1.80;99.90;;;;;;4716717;30;20102;-79
2022/12/07 03:21:40;;;;;;;34.25;14.13;;;1.80;99.90;;;;;;4729147;30;20114;-79
2022/12/07 03:24:16;;;;;;;28.67;13.40;;;1.90;99.90;;;;;;4714174;30;20048;-79
2022/12/07 03:26:52;;;;;;;33.20;14.00;;;1.90;99.90;;;;;;4746022;30;20044;-79
2022/12/07 03:29:34;;;;;;;30.33;14.23;;;1.90;99.90;;;;;;4745465;30;20068;-79
2022/12/07 03:32:31;;;;;;;32.78;14.13;;;1.90;99.90;;;;;;4726501;30;20068;-80
2022/12/07 03:35:00;;;;;;;34.53;13.45;;;1.90;99.90;;;;;;4729496;30;20060;-79
2022/12/07 03:37:44;;;;;;;36.58;14.65;;;1.80;99.90;;;;;;4715414;30;20485;-79
2022/12/07 03:40:44;;;;;;;35.75;14.57;;;1.90;99.90;;;;;;4748897;30;20079;-79
2022/12/07 03:43:12;;;;;;;42.47;16.50;;;1.90;99.90;;;;;;4708235;30;20428;-79
2022/12/07 03:45:47;;;;;;;39.45;14.20;;;1.90;99.90;;;;;;4730652;30;20055;-79
2022/12/07 03:48:24;;;;;;;41.35;15.52;;;1.90;99.90;;;;;;4731402;30;20052;-80
2022/12/07 03:51:03;;;;;;;42.17;14.73;;;1.90;99.90;;;;;;4728469;30;20300;-79
2022/12/07 03:54:05;;;;;;;43.25;15.05;;;1.90;99.90;;;;;;4734922;30;20063;-79
2022/12/07 03:56:34;;;;;;;47.95;17.05;;;1.90;99.90;;;;;;4714963;30;20551;-80
2022/12/07 03:59:01;;;;;;;47.22;15.98;;;1.90;99.90;;;;;;4730739;30;20045;-79
2022/12/07 04:01:28;;;;;;;42.42;15.65;;;1.90;99.90;;;;;;4716927;30;20048;-79
2022/12/07 04:03:55;;;;;;;43.70;15.45;;;1.90;99.90;;;;;;4726622;30;20406;-79
2022/12/07 04:06:22;;;;;;;44.00;15.75;;;2.00;99.90;;;;;;4734058;30;20100;-80
2022/12/07 04:08:49;;;;;;;40.60;16.40;;;2.00;99.90;;;;;;4733243;30;20052;-80
2022/12/07 04:11:16;;;;;;;43.40;15.88;;;2.00;99.90;;;;;;4743469;30;20632;-80
2022/12/07 04:16:29;;;;;;;41.28;15.25;;;2.00;99.90;;;;;;4747725;30;20134;-79
2022/12/07 04:18:56;;;;;;;39.35;14.55;;;2.00;99.90;;;;;;4731007;30;20048;-79
2022/12/07 04:21:23;;;;;;;31.35;13.30;;;2.00;99.90;;;;;;4728105;30;20052;-79
2022/12/07 04:23:50;;;;;;;44.80;14.73;;;2.00;99.90;;;;;;4729260;30;20048;-79
2022/12/07 04:26:17;;;;;;;41.10;15.18;;;2.00;99.90;;;;;;4727107;30;20678;-79
2022/12/07 04:28:44;;;;;;;42.42;15.65;;;2.10;99.90;;;;;;4731025;30;20055;-79
2022/12/07 04:31:12;;;;;;;38.58;15.55;;;2.10;99.90;;;;;;4731904;30;20056;-79
2022/12/07 04:33:39;;;;;;;37.00;14.57;;;2.10;99.90;;;;;;4733541;30;20536;-79
2022/12/07 04:36:06;;;;;;;40.20;16.00;;;2.10;99.90;;;;;;4716275;30;20111;-79
2022/12/07 04:38:33;;;;;;;43.90;15.95;;;2.10;99.90;;;;;;4711440;30;20048;-79
2022/12/07 04:41:05;;;;;;;43.55;16.90;;;2.10;99.90;;;;;;4731520;30;20055;-79
2022/12/07 04:43:33;;;;;;;48.08;16.65;;;2.10;99.90;;;;;;4712982;30;20060;-79
2022/12/07 04:46:01;;;;;;;42.33;15.43;;;2.10;99.90;;;;;;4713986;30;20051;-79
2022/12/07 04:48:28;;;;;;;38.45;14.65;;;2.10;99.90;;;;;;4728448;30;20049;-79
2022/12/07 04:50:55;;;;;;;45.70;16.35;;;2.20;99.90;;;;;;4714201;30;20436;-79
2022/12/07 04:53:22;;;;;;;45.03;15.48;;;2.20;99.90;;;;;;4748528;30;20539;-79
2022/12/07 04:55:50;;;;;;;35.47;14.32;;;2.20;99.90;;;;;;4731660;30;20052;-79
2022/12/07 04:58:17;;;;;;;39.50;14.05;;;2.20;99.90;;;;;;4741497;30;20133;-79
2022/12/07 05:00:44;;;;;;;41.67;16.77;;;2.20;99.90;;;;;;4751311;30;20055;-79
2022/12/07 05:03:11;;;;;;;39.58;15.90;;;2.20;99.90;;;;;;4733199;30;21632;-79
2022/12/07 05:05:41;;;;;;;45.67;15.82;;;2.20;99.90;;;;;;4732571;30;20489;-79
2022/12/07 05:08:08;;;;;;;40.30;15.48;;;2.20;99.90;;;;;;4733117;30;20055;-79
2022/12/07 05:10:35;;;;;;;43.67;16.05;;;2.20;99.90;;;;;;4731975;30;20140;-79
2022/12/07 05:13:02;;;;;;;40.72;17.40;;;2.20;99.90;;;;;;4734539;30;20148;-79
2022/12/07 05:15:29;;;;;;;40.92;16.05;;;2.20;99.90;;;;;;4733015;30;20098;-79
2022/12/07 05:17:56;;;;;;;42.22;16.70;;;2.20;99.90;;;;;;4732008;30;20107;-79
2022/12/07 05:20:23;;;;;;;38.38;15.55;;;2.20;99.90;;;;;;4735587;30;20036;-79
2022/12/07 05:22:51;;;;;;;40.67;15.43;;;2.20;99.90;;;;;;4729345;30;20063;-79
2022/12/07 05:25:18;;;;;;;40.42;15.80;;;2.30;99.90;;;;;;4717169;30;20044;-79
2022/12/07 05:27:45;;;;;;;37.20;16.83;;;2.20;99.90;;;;;;4734979;30;20814;-79
2022/12/07 05:30:12;;;;;;;43.30;17.77;;;2.30;99.90;;;;;;4741274;30;20089;-79
2022/12/07 05:32:39;;;;;;;45.72;18.10;;;2.30;99.90;;;;;;4719936;30;20068;-79
2022/12/07 05:35:07;;;;;;;41.13;15.95;;;2.30;99.90;;;;;;4734397;30;20055;-80
2022/12/07 05:37:34;;;;;;;39.70;16.45;;;2.30;99.90;;;;;;4734141;30;20487;-80
2022/12/07 05:40:01;;;;;;;43.15;15.75;;;2.30;99.90;;;;;;4716983;30;20044;-79
2022/12/07 05:42:28;;;;;;;39.75;15.18;;;2.30;99.90;;;;;;4733730;30;20394;-79
2022/12/07 05:44:55;;;;;;;48.42;15.52;;;2.30;99.90;;;;;;4727650;30;20067;-79
2022/12/07 05:47:22;;;;;;;42.63;14.98;;;2.30;99.90;;;;;;4719824;30;20048;-79
2022/12/07 05:49:49;;;;;;;46.53;17.67;;;2.30;99.90;;;;;;4732851;30;20063;-79
2022/12/07 05:52:16;;;;;;;39.30;14.05;;;2.30;99.90;;;;;;4721058;30;20052;-79
2022/12/07 05:54:43;;;;;;;33.97;14.25;;;2.30;99.90;;;;;;4719557;30;20060;-79
2022/12/07 05:57:11;;;;;;;33.63;14.57;;;2.40;99.90;;;;;;4715533;30;20055;-79
2022/12/07 05:59:38;;;;;;;37.05;14.68;;;2.30;99.90;;;;;;4718168;30;20044;-79
2022/12/07 06:02:11;;;;;;;34.20;13.88;;;2.40;99.90;;;;;;4733752;30;20053;-79
2022/12/07 06:04:41;;;;;;;30.33;13.77;;;2.40;99.90;;;;;;4732858;30;20052;-79
2022/12/07 06:07:09;;;;;;;38.75;14.77;;;2.40;99.90;;;;;;4731830;30;20067;-79
2022/12/07 06:09:37;;;;;;;35.83;15.65;;;2.40;99.90;;;;;;4731560;30;20052;-79
2022/12/07 06:14:51;;;;;;;37.78;15.23;;;2.40;99.90;;;;;;4746204;30;20123;-79
2022/12/07 06:17:18;;;;;;;32.47;14.45;;;2.40;99.90;;;;;;4746504;30;20052;-79
2022/12/07 06:19:45;;;;;;;34.47;15.70;;;2.40;99.90;;;;;;4730696;30;20517;-79
2022/12/07 06:22:13;;;;;;;36.28;13.35;;;2.40;99.90;;;;;;4730252;30;20044;-79
2022/12/07 06:24:40;;;;;;;32.58;13.98;;;2.30;99.90;;;;;;4728951;30;20048;-79
2022/12/07 06:27:07;;;;;;;33.08;13.35;;;2.30;99.90;;;;;;4731998;30;20444;-79
2022/12/07 06:29:34;;;;;;;30.58;13.02;;;2.30;99.90;;;;;;4712577;30;20147;-80
2022/12/07 06:32:02;;;;;;;43.85;17.20;;;2.30;99.90;;;;;;4731463;30;20052;-80
2022/12/07 06:34:29;;;;;;;36.55;15.15;;;2.30;99.90;;;;;;4717188;30;20059;-80
2022/12/07 06:36:56;;;;;;;39.15;14.95;;;2.30;99.90;;;;;;4735529;30;20096;-79
2022/12/07 06:39:26;;;;;;;34.33;15.60;;;2.30;99.90;;;;;;4717069;30;20102;-79
2022/12/07 06:41:53;;;;;;;38.22;14.65;;;2.40;99.90;;;;;;4731748;30;20065;-79
2022/12/07 06:44:21;;;;;;;36.30;15.88;;;2.40;99.90;;;;;;4732300;30;20077;-79
2022/12/07 06:46:49;;;;;;;37.53;16.55;;;2.40;99.90;;;;;;4720999;30;20052;-79
2022/12/07 06:49:17;;;;;;;48.00;17.48;;;2.40;99.90;;;;;;4734055;30;20513;-79
2022/12/07 06:51:44;;;;;;;47.08;19.23;;;2.40;99.90;;;;;;4720982;30;20147;-79
2022/12/07 06:54:13;;;;;;;51.10;21.60;;;2.40;99.90;;;;;;4733441;30;20485;-79
2022/12/07 06:56:40;;;;;;;53.17;22.05;;;2.40;99.90;;;;;;4731759;30;20055;-79
2022/12/07 06:59:07;;;;;;;46.15;19.00;;;2.40;99.90;;;;;;4734590;30;20052;-79
2022/12/07 07:01:35;;;;;;;40.15;17.33;;;2.40;99.90;;;;;;4745394;30;20074;-79
2022/12/07 07:04:03;;;;;;;46.13;19.20;;;2.40;99.90;;;;;;4732417;30;20048;-79
2022/12/07 07:06:30;;;;;;;53.22;23.25;;;2.50;99.90;;;;;;4733072;30;20425;-79
2022/12/07 07:08:57;;;;;;;57.92;23.60;;;2.50;99.90;;;;;;4733051;30;20040;-79
2022/12/07 07:56:15;;;;;;;69.30;27.60;;;2.60;99.90;;;;;;5424679;24;20056;-90
2022/12/07 16:28:57;;;;;;;59.95;24.52;;;4.00;99.90;;;;;;4731312;30;20067;-78
2022/12/07 16:31:28;;;;;;;79.82;33.17;;;4.00;99.90;;;;;;4718746;30;20056;-78
2022/12/07 16:33:57;;;;;;;79.07;32.28;;;3.90;99.90;;;;;;4735120;30;20110;-78
2022/12/07 16:36:26;;;;;;;69.05;29.30;;;3.90;99.90;;;;;;4732925;30;20106;-78
2022/12/07 16:39:13;;;;;;;70.53;28.92;;;3.80;99.90;;;;;;4730610;30;20067;-79
2022/12/07 16:41:40;;;;;;;54.00;22.88;;;3.80;99.90;;;;;;4740760;30;20149;-79
2022/12/07 16:44:12;;;;;;;50.47;22.98;;;3.70;99.90;;;;;;4731417;30;20055;-79
2022/12/07 16:46:40;;;;;;;42.85;20.90;;;3.70;99.90;;;;;;4734411;30;20072;-79
2022/12/07 16:49:12;;;;;;;69.88;31.40;;;3.70;99.90;;;;;;4716513;30;20069;-79
2022/12/07 16:51:41;;;;;;;49.55;23.98;;;3.60;99.90;;;;;;4726231;30;20107;-79
2022/12/07 16:54:12;;;;;;;45.05;20.55;;;3.60;99.90;;;;;;4721114;30;20059;-78
2022/12/07 16:56:40;;;;;;;43.03;17.85;;;3.60;99.90;;;;;;4737009;30;20093;-78
2022/12/07 16:59:07;;;;;;;61.47;24.52;;;3.50;99.90;;;;;;4733798;30;20079;-78
2022/12/07 17:01:35;;;;;;;43.53;21.90;;;3.50;99.90;;;;;;4715973;30;20049;-78
2022/12/07 17:04:04;;;;;;;44.00;21.35;;;3.50;99.90;;;;;;4713018;30;20049;-78
2022/12/07 17:06:31;;;;;;;39.20;18.40;;;3.40;99.90;;;;;;4741123;30;20053;-78
2022/12/07 17:08:59;;;;;;;39.33;18.17;;;3.40;99.90;;;;;;4742758;30;20502;-78
2022/12/07 17:11:30;;;;;;;44.35;18.90;;;3.30;99.90;;;;;;4731626;30;20383;-78
2022/12/07 17:16:43;;;;;;;79.78;30.33;;;3.20;99.90;;;;;;4750748;30;20520;-78
2022/12/07 17:19:14;;;;;;;79.47;33.65;;;3.20;99.90;;;;;;4716497;30;20059;-78
2022/12/07 17:21:43;;;;;;;82.63;31.70;;;3.20;99.90;;;;;;4741616;30;20144;-78
2022/12/07 17:24:13;;;;;;;81.80;30.63;;;3.10;99.90;;;;;;4710781;30;20202;-78
2022/12/07 17:26:43;;;;;;;69.57;26.25;;;3.10;99.90;;;;;;4742517;30;20053;-78
2022/12/07 17:29:12;;;;;;;75.93;26.05;;;3.00;99.90;;;;;;4704685;30;20079;-78
2022/12/07 17:31:40;;;;;;;59.33;24.52;;;3.00;99.90;;;;;;4703384;30;20053;-78
2022/12/07 17:34:14;;;;;;;62.45;24.38;;;3.00;99.90;;;;;;4716274;30;20526;-78
2022/12/07 17:36:45;;;;;;;65.68;27.35;;;2.90;99.90;;;;;;4724348;30;20057;-78
2022/12/07 17:39:16;;;;;;;63.35;24.63;;;2.90;99.90;;;;;;4718406;30;20052;-78
2022/12/07 17:44:49;;;;;;;70.45;26.08;;;2.80;99.90;;;;;;4684400;30;20057;-78
2022/12/07 17:47:17;;;;;;;66.85;27.48;;;2.80;99.90;;;;;;4695836;30;20061;-78
2022/12/07 17:49:48;;;;;;;67.75;27.98;;;2.70;99.90;;;;;;4711672;30;20403;-78
2022/12/07 17:55:02;;;;;;;62.83;26.45;;;2.70;99.90;;;;;;4728395;30;20045;-78
2022/12/07 17:57:30;;;;;;;60.95;25.25;;;2.60;99.90;;;;;;4718496;30;20060;-78
2022/12/07 17:59:58;;;;;;;41.67;16.55;;;2.60;99.90;;;;;;4712253;30;20108;-78
2022/12/07 18:02:26;;;;;;;41.78;18.92;;;2.60;99.90;;;;;;4723549;30;20127;-79
2022/12/07 18:04:53;;;;;;;40.25;15.98;;;2.50;99.90;;;;;;4698806;30;20049;-79
2022/12/07 18:07:21;;;;;;;40.67;15.75;;;2.50;99.90;;;;;;4721209;30;20138;-78
2022/12/07 18:09:48;;;;;;;37.67;14.95;;;2.50;99.90;;;;;;4725189;30;20048;-78
2022/12/07 18:12:15;;;;;;;39.15;16.17;;;2.50;99.90;;;;;;4704173;30;20156;-78
2022/12/07 18:14:42;;;;;;;47.45;17.40;;;2.40;99.90;;;;;;4702164;30;20396;-78
2022/12/07 18:17:10;;;;;;;45.85;19.33;;;2.40;99.90;;;;;;4716926;30;20056;-78
2022/12/07 18:19:39;;;;;;;44.30;18.52;;;2.40;99.90;;;;;;4694916;30;20052;-78
2022/12/07 18:22:06;;;;;;;45.92;17.15;;;2.40;99.90;;;;;;4720372;30;20052;-78
2022/12/07 18:24:34;;;;;;;44.15;15.88;;;2.30;99.90;;;;;;4725184;30;24819;-78
2022/12/07 18:27:04;;;;;;;47.28;17.08;;;2.30;99.90;;;;;;4718573;30;20056;-78
2022/12/07 18:29:32;;;;;;;46.33;19.40;;;2.30;99.90;;;;;;4726503;30;20063;-78
2022/12/07 18:32:00;;;;;;;47.33;19.15;;;2.30;99.90;;;;;;4752600;30;20059;-78
2022/12/07 18:34:29;;;;;;;46.95;18.88;;;2.30;99.90;;;;;;4729554;30;20052;-78
2022/12/07 18:36:58;;;;;;;41.13;17.70;;;2.20;99.90;;;;;;4745693;30;20066;-78
2022/12/07 18:39:25;;;;;;;46.10;18.05;;;2.20;99.90;;;;;;4721085;30;21026;-78
2022/12/07 18:42:00;;;;;;;48.80;18.05;;;2.20;99.90;;;;;;4742907;30;20048;-78
2022/12/07 18:44:32;;;;;;;49.20;19.63;;;2.10;99.90;;;;;;4738223;30;20493;-78
2022/12/07 18:47:00;;;;;;;51.70;18.30;;;2.10;99.90;;;;;;4748476;30;20041;-78
2022/12/07 18:49:28;;;;;;;49.92;19.65;;;2.00;99.90;;;;;;4718144;30;20135;-78
2022/12/07 18:51:58;;;;;;;48.00;20.83;;;2.00;99.90;;;;;;4748595;30;20045;-79
2022/12/07 18:54:29;;;;;;;55.72;22.67;;;2.00;99.90;;;;;;4745542;30;20049;-79
2022/12/07 18:57:12;;;;;;;53.83;23.60;;;2.00;99.90;;;;;;5210306;24;20063;-79
2022/12/07 18:59:47;;;;;;;60.35;24.13;;;1.90;99.90;;;;;;4731141;30;20579;-79
2022/12/07 19:02:17;;;;;;;53.30;23.08;;;1.90;99.90;;;;;;4735042;30;20048;-79
2022/12/07 19:04:46;;;;;;;55.38;21.73;;;1.90;99.90;;;;;;4737466;30;20502;-79
2022/12/07 19:07:13;;;;;;;56.45;23.08;;;1.80;99.90;;;;;;4738037;30;20191;-79
2022/12/07 19:09:41;;;;;;;60.63;26.15;;;1.80;99.90;;;;;;4731207;30;20048;-79
2022/12/07 19:12:13;;;;;;;63.08;26.15;;;1.80;99.90;;;;;;4726873;30;20059;-79
2022/12/07 19:14:42;;;;;;;67.68;26.08;;;1.80;99.90;;;;;;4750234;30;20489;-79
2022/12/07 19:17:12;;;;;;;67.20;25.15;;;1.80;99.90;;;;;;4736220;30;20417;-79
2022/12/07 19:19:45;;;;;;;79.88;31.73;;;1.70;99.90;;;;;;4732912;30;20067;-78
2022/12/07 19:22:20;;;;;;;72.72;29.40;;;1.70;99.90;;;;;;4731483;30;20468;-78
2022/12/07 19:24:50;;;;;;;86.18;33.38;;;1.70;99.90;;;;;;4724416;30;20140;-79
2022/12/07 19:27:19;;;;;;;84.53;33.83;;;1.70;99.90;;;;;;4714910;30;20085;-78
2022/12/07 19:29:48;;;;;;;80.47;32.95;;;1.70;99.90;;;;;;4710291;30;20498;-78
2022/12/07 19:32:18;;;;;;;82.85;32.78;;;1.60;99.90;;;;;;4713270;30;20049;-78
2022/12/07 19:34:47;;;;;;;81.15;32.20;;;1.60;99.90;;;;;;4725513;30;20400;-79
2022/12/07 19:37:15;;;;;;;87.90;35.70;;;1.60;99.90;;;;;;4703916;30;20059;-79
2022/12/07 19:39:43;;;;;;;77.40;32.42;;;1.60;99.90;;;;;;4715521;30;20148;-79
2022/12/07 19:42:12;;;;;;;74.80;32.17;;;1.50;99.90;;;;;;4718451;30;20040;-78
2022/12/07 19:44:40;;;;;;;75.65;29.45;;;1.50;99.90;;;;;;4703220;30;20136;-79
2022/12/07 19:47:15;;;;;;;73.82;30.38;;;1.50;99.90;;;;;;4734852;30;20558;-79
2022/12/07 19:49:44;;;;;;;77.75;28.75;;;1.50;99.90;;;;;;4733384;30;20051;-78
2022/12/07 19:52:15;;;;;;;72.72;28.10;;;1.50;99.90;;;;;;4728774;30;20072;-79
2022/12/07 19:54:43;;;;;;;83.00;29.80;;;1.50;99.90;;;;;;4714338;30;20059;-79
2022/12/07 19:57:14;;;;;;;74.68;31.02;;;1.40;99.90;;;;;;4731364;30;20269;-78
2022/12/07 19:59:43;;;;;;;89.43;31.98;;;1.40;99.90;;;;;;4731931;30;20044;-79
2022/12/07 20:02:13;;;;;;;86.90;30.95;;;1.30;99.90;;;;;;4717074;30;20053;-79
2022/12/07 20:04:41;;;;;;;90.63;33.50;;;1.40;99.90;;;;;;4722896;30;20134;-79
2022/12/07 20:07:09;;;;;;;79.60;30.45;;;1.30;99.90;;;;;;4702724;30;20148;-79
2022/12/07 20:09:40;;;;;;;82.82;32.33;;;1.30;99.90;;;;;;4716072;30;20413;-79
2022/12/07 20:14:59;;;;;;;83.13;31.40;;;1.30;99.90;;;;;;4716945;30;20052;-78
2022/12/07 20:17:28;;;;;;;80.15;29.65;;;1.20;99.90;;;;;;4711907;30;20603;-79
2022/12/07 20:19:56;;;;;;;83.05;32.40;;;1.20;99.90;;;;;;4731255;30;20044;-78
2022/12/07 20:22:24;;;;;;;86.10;34.45;;;1.20;99.90;;;;;;4716393;30;20057;-78
2022/12/07 20:24:52;;;;;;;91.22;33.10;;;1.20;99.90;;;;;;4705083;30;20084;-79
2022/12/07 20:27:20;;;;;;;95.38;35.30;;;1.20;99.90;;;;;;4724054;30;20443;-79
2022/12/07 20:29:49;;;;;;;98.85;33.75;;;1.20;99.90;;;;;;4734877;30;20075;-78
2022/12/07 20:32:17;;;;;;;84.50;34.97;;;1.20;99.90;;;;;;4722637;30;20049;-78
2022/12/07 20:34:45;;;;;;;100.65;35.50;;;1.20;99.90;;;;;;4736214;30;20040;-79
2022/12/07 20:37:13;;;;;;;96.45;35.92;;;1.10;99.90;;;;;;4724732;30;20135;-79
2022/12/07 20:39:44;;;;;;;95.97;35.40;;;1.10;99.90;;;;;;4723086;30;20072;-79
2022/12/07 20:44:59;;;;;;;98.50;33.38;;;1.10;99.90;;;;;;4723201;30;20505;-79
2022/12/07 20:47:31;;;;;;;101.50;35.88;;;1.10;99.90;;;;;;4710932;30;20059;-79
2022/12/07 20:50:01;;;;;;;99.45;36.00;;;1.00;99.90;;;;;;4727480;30;20052;-79
2022/12/07 20:52:29;;;;;;;100.32;36.10;;;1.00;99.90;;;;;;4723745;30;20053;-78
2022/12/07 20:54:57;;;;;;;115.28;39.42;;;1.00;99.90;;;;;;4717420;30;20049;-78
2022/12/07 20:57:25;;;;;;;107.30;40.35;;;1.00;99.90;;;;;;4721728;30;20075;-78
2022/12/07 20:59:54;;;;;;;112.75;42.50;;;1.00;99.90;;;;;;4735929;30;20507;-78
2022/12/07 21:02:21;;;;;;;126.65;47.38;;;0.90;99.90;;;;;;4731295;30;20980;-78
2022/12/07 21:04:49;;;;;;;125.57;44.50;;;0.90;99.90;;;;;;4718962;30;20056;-78
2022/12/07 21:07:16;;;;;;;118.25;42.88;;;0.90;99.90;;;;;;4706690;30;20053;-78
2022/12/07 21:09:47;;;;;;;130.57;45.67;;;0.90;99.90;;;;;;4719324;30;20059;-79
2022/12/07 21:12:15;;;;;;;118.70;43.78;;;0.90;99.90;;;;;;4721399;30;20052;-78
2022/12/07 21:14:43;;;;;;;124.18;43.97;;;0.90;99.90;;;;;;4735472;30;20056;-78
2022/12/07 21:17:10;;;;;;;117.97;42.92;;;0.90;99.90;;;;;;4738856;30;20052;-78
2022/12/07 21:19:38;;;;;;;127.70;45.67;;;0.90;99.90;;;;;;4735494;30;20044;-78
2022/12/07 21:22:05;;;;;;;115.00;43.50;;;0.80;99.90;;;;;;4713712;30;20510;-78
2022/12/07 21:24:32;;;;;;;145.85;48.50;;;0.80;99.90;;;;;;4717060;30;20425;-78
2022/12/07 21:26:59;;;;;;;134.27;48.00;;;0.80;99.90;;;;;;4707321;30;20057;-78
2022/12/07 21:29:27;;;;;;;137.95;48.60;;;0.80;99.90;;;;;;4718909;30;20044;-78
2022/12/07 21:32:11;;;;;;;162.05;54.03;;;0.80;99.90;;;;;;4719947;30;20143;-78
2022/12/07 21:34:38;;;;;;;175.48;59.53;;;0.80;99.90;;;;;;4736554;30;20468;-78
2022/12/07 21:37:05;;;;;;;178.43;56.80;;;0.80;99.90;;;;;;4714610;30;20057;-78
2022/12/07 21:39:32;;;;;;;151.30;54.53;;;0.80;99.90;;;;;;4720251;30;20114;-78
2022/12/07 21:41:59;;;;;;;158.48;55.90;;;0.80;99.90;;;;;;4724188;30;20408;-78
2022/12/07 21:44:26;;;;;;;129.52;49.55;;;0.80;99.90;;;;;;4722659;30;20044;-78
2022/12/07 21:46:53;;;;;;;146.90;50.72;;;0.80;99.90;;;;;;4706772;30;20426;-78
2022/12/07 21:49:20;;;;;;;152.48;52.00;;;0.80;99.90;;;;;;4719849;30;20048;-78
2022/12/07 21:51:47;;;;;;;151.13;53.72;;;0.80;99.90;;;;;;4733234;30;20536;-78
2022/12/07 21:54:14;;;;;;;159.85;53.25;;;0.80;99.90;;;;;;4709597;30;20490;-78
2022/12/07 21:56:44;;;;;;;151.07;55.92;;;0.80;99.90;;;;;;4726622;30;20057;-78
2022/12/07 21:59:14;;;;;;;150.05;51.38;;;0.80;99.90;;;;;;4712817;30;20057;-80
2022/12/07 22:01:45;;;;;;;154.60;51.70;;;0.80;99.90;;;;;;4722125;30;20444;-78
2022/12/07 22:04:19;;;;;;;147.77;53.50;;;0.70;99.90;;;;;;4729193;30;20068;-78
2022/12/07 22:06:47;;;;;;;147.90;51.08;;;0.70;99.90;;;;;;4720278;30;20135;-78
2022/12/07 22:09:17;;;;;;;127.68;46.58;;;0.70;99.90;;;;;;4718484;30;20056;-78
2022/12/07 22:11:45;;;;;;;140.45;47.45;;;0.70;99.90;;;;;;4732476;30;20056;-78
2022/12/07 22:17:14;;;;;;;128.20;44.17;;;0.70;99.90;;;;;;4693869;30;20061;-78
2022/12/07 22:19:41;;;;;;;122.35;41.30;;;0.70;99.90;;;;;;4709288;30;20083;-78
2022/12/07 22:22:16;;;;;;;125.05;43.33;;;0.70;99.90;;;;;;4720624;30;20048;-78
2022/12/07 22:24:43;;;;;;;127.53;43.85;;;0.70;99.90;;;;;;4722128;30;20049;-78
2022/12/07 22:27:10;;;;;;;114.47;42.53;;;0.60;99.90;;;;;;4727833;30;20044;-78
2022/12/07 22:29:43;;;;;;;112.10;40.45;;;0.60;99.90;;;;;;4705648;30;20813;-80